sensor_id;sensor_type;location;lat;lon;timestamp;P1;durP1;ratioP1;P2;durP2;ratioP2
20095;SDS011;10207;50.942;6.900;2022-08-19T00:00:17;9.15;;;7.93;;
20095;SDS011;10207;50.942;6.900;2022-08-19T00:02:42;10.57;;;7.75;;
20095;SDS011;10207;50.942;6.900;2022-08-19T00:05:09;14.20;;;8.60;;
20095;SDS011;10207;50.942;6.900;2022-08-19T00:07:36;10.50;;;8.40;;
20095;SDS011;10207;50.942;6.900;2022-08-19T00:10:03;11.45;;;8.70;;
20095;SDS011;10207;50.942;6.900;2022-08-19T00:12:29;9.13;;;7.85;;
20095;SDS011;10207;50.942;6.900;2022-08-19T00:14:55;9.95;;;8.27;;
20095;SDS011;10207;50.942;6.900;2022-08-19T00:17:21;11.52;;;8.05;;
20095;SDS011;10207;50.942;6.900;2022-08-19T00:19:47;12.48;;;9.18;;
20095;SDS011;10207;50.942;6.900;2022-08-19T00:22:12;15.30;;;9.35;;
20095;SDS011;10207;50.942;6.900;2022-08-19T00:24:38;9.80;;;7.90;;
20095;SDS011;10207;50.942;6.900;2022-08-19T00:27:06;9.90;;;8.90;;
20095;SDS011;10207;50.942;6.900;2022-08-19T00:29:32;10.80;;;8.68;;
20095;SDS011;10207;50.942;6.900;2022-08-19T00:31:58;15.93;;;9.30;;
20095;SDS011;10207;50.942;6.900;2022-08-19T00:34:25;10.05;;;8.60;;
20095;SDS011;10207;50.942;6.900;2022-08-19T00:36:53;13.13;;;9.40;;
20095;SDS011;10207;50.942;6.900;2022-08-19T00:39:19;17.83;;;11.32;;
20095;SDS011;10207;50.942;6.900;2022-08-19T00:41:46;10.23;;;8.00;;
20095;SDS011;10207;50.942;6.900;2022-08-19T00:44:15;12.18;;;9.43;;
20095;SDS011;10207;50.942;6.900;2022-08-19T00:46:43;13.38;;;9.82;;
20095;SDS011;10207;50.942;6.900;2022-08-19T00:49:31;14.00;;;10.40;;
20095;SDS011;10207;50.942;6.900;2022-08-19T00:51:56;11.82;;;10.10;;
20095;SDS011;10207;50.942;6.900;2022-08-19T00:54:23;12.00;;;10.60;;
20095;SDS011;10207;50.942;6.900;2022-08-19T00:56:49;13.38;;;10.75;;
20095;SDS011;10207;50.942;6.900;2022-08-19T00:59:15;13.93;;;10.25;;
20095;SDS011;10207;50.942;6.900;2022-08-19T01:01:42;13.13;;;10.65;;
20095;SDS011;10207;50.942;6.900;2022-08-19T01:04:08;13.77;;;10.38;;
20095;SDS011;10207;50.942;6.900;2022-08-19T01:06:35;14.38;;;10.73;;
20095;SDS011;10207;50.942;6.900;2022-08-19T01:09:03;13.77;;;9.90;;
20095;SDS011;10207;50.942;6.900;2022-08-19T01:11:29;15.23;;;10.90;;
20095;SDS011;10207;50.942;6.900;2022-08-19T01:13:57;16.23;;;10.35;;
20095;SDS011;10207;50.942;6.900;2022-08-19T01:16:23;13.75;;;9.82;;
20095;SDS011;10207;50.942;6.900;2022-08-19T01:18:50;13.85;;;10.63;;
20095;SDS011;10207;50.942;6.900;2022-08-19T01:21:23;17.75;;;10.15;;
20095;SDS011;10207;50.942;6.900;2022-08-19T01:23:51;14.88;;;10.60;;
20095;SDS011;10207;50.942;6.900;2022-08-19T01:26:20;12.93;;;9.70;;
20095;SDS011;10207;50.942;6.900;2022-08-19T01:28:47;15.20;;;9.88;;
20095;SDS011;10207;50.942;6.900;2022-08-19T01:31:15;11.05;;;9.63;;
20095;SDS011;10207;50.942;6.900;2022-08-19T01:33:41;13.00;;;10.35;;
20095;SDS011;10207;50.942;6.900;2022-08-19T01:36:08;13.77;;;9.80;;
20095;SDS011;10207;50.942;6.900;2022-08-19T01:38:36;13.25;;;8.95;;
20095;SDS011;10207;50.942;6.900;2022-08-19T01:41:02;14.15;;;10.38;;
20095;SDS011;10207;50.942;6.900;2022-08-19T01:43:27;14.90;;;10.10;;
20095;SDS011;10207;50.942;6.900;2022-08-19T01:45:53;11.57;;;9.65;;
20095;SDS011;10207;50.942;6.900;2022-08-19T01:48:19;14.32;;;10.80;;
20095;SDS011;10207;50.942;6.900;2022-08-19T01:50:45;14.38;;;10.68;;
20095;SDS011;10207;50.942;6.900;2022-08-19T01:53:16;11.05;;;9.52;;
20095;SDS011;10207;50.942;6.900;2022-08-19T01:55:42;11.63;;;10.07;;
20095;SDS011;10207;50.942;6.900;2022-08-19T01:58:11;13.13;;;10.57;;
20095;SDS011;10207;50.942;6.900;2022-08-19T02:00:37;14.35;;;10.05;;
20095;SDS011;10207;50.942;6.900;2022-08-19T02:03:03;12.45;;;10.27;;
20095;SDS011;10207;50.942;6.900;2022-08-19T02:05:29;11.77;;;9.70;;
20095;SDS011;10207;50.942;6.900;2022-08-19T02:07:55;12.23;;;10.68;;
20095;SDS011;10207;50.942;6.900;2022-08-19T02:10:22;15.05;;;10.10;;
20095;SDS011;10207;50.942;6.900;2022-08-19T02:12:48;16.08;;;10.80;;
20095;SDS011;10207;50.942;6.900;2022-08-19T02:15:15;16.70;;;10.93;;
20095;SDS011;10207;50.942;6.900;2022-08-19T02:17:41;14.57;;;10.35;;
20095;SDS011;10207;50.942;6.900;2022-08-19T02:20:07;16.25;;;11.02;;
20095;SDS011;10207;50.942;6.900;2022-08-19T02:22:33;17.13;;;10.88;;
20095;SDS011;10207;50.942;6.900;2022-08-19T02:24:59;12.90;;;10.85;;
20095;SDS011;10207;50.942;6.900;2022-08-19T02:27:25;12.07;;;10.68;;
20095;SDS011;10207;50.942;6.900;2022-08-19T02:29:51;14.00;;;11.05;;
20095;SDS011;10207;50.942;6.900;2022-08-19T02:32:17;17.55;;;10.00;;
20095;SDS011;10207;50.942;6.900;2022-08-19T02:34:45;12.88;;;10.63;;
20095;SDS011;10207;50.942;6.900;2022-08-19T02:37:11;16.92;;;10.55;;
20095;SDS011;10207;50.942;6.900;2022-08-19T02:39:57;13.60;;;9.85;;
20095;SDS011;10207;50.942;6.900;2022-08-19T02:42:23;12.15;;;10.18;;
20095;SDS011;10207;50.942;6.900;2022-08-19T02:44:49;14.23;;;10.75;;
20095;SDS011;10207;50.942;6.900;2022-08-19T02:47:15;14.43;;;10.18;;
20095;SDS011;10207;50.942;6.900;2022-08-19T02:49:41;15.60;;;10.32;;
20095;SDS011;10207;50.942;6.900;2022-08-19T02:52:07;18.20;;;11.27;;
20095;SDS011;10207;50.942;6.900;2022-08-19T02:54:33;14.55;;;11.45;;
20095;SDS011;10207;50.942;6.900;2022-08-19T02:56:58;20.33;;;11.80;;
20095;SDS011;10207;50.942;6.900;2022-08-19T02:59:24;17.50;;;11.95;;
20095;SDS011;10207;50.942;6.900;2022-08-19T03:01:52;19.02;;;12.57;;
20095;SDS011;10207;50.942;6.900;2022-08-19T03:04:18;20.77;;;12.95;;
20095;SDS011;10207;50.942;6.900;2022-08-19T03:06:45;20.02;;;12.02;;
20095;SDS011;10207;50.942;6.900;2022-08-19T03:09:12;21.83;;;11.57;;
20095;SDS011;10207;50.942;6.900;2022-08-19T03:11:38;16.25;;;11.77;;
20095;SDS011;10207;50.942;6.900;2022-08-19T03:14:05;21.85;;;12.80;;
20095;SDS011;10207;50.942;6.900;2022-08-19T03:16:33;18.50;;;13.55;;
20095;SDS011;10207;50.942;6.900;2022-08-19T03:19:00;17.85;;;13.57;;
20095;SDS011;10207;50.942;6.900;2022-08-19T03:21:27;17.48;;;12.38;;
20095;SDS011;10207;50.942;6.900;2022-08-19T03:23:54;15.15;;;12.77;;
20095;SDS011;10207;50.942;6.900;2022-08-19T03:26:20;23.10;;;14.40;;
20095;SDS011;10207;50.942;6.900;2022-08-19T03:28:46;19.98;;;14.05;;
20095;SDS011;10207;50.942;6.900;2022-08-19T03:31:16;20.02;;;13.13;;
20095;SDS011;10207;50.942;6.900;2022-08-19T03:33:42;14.23;;;12.65;;
20095;SDS011;10207;50.942;6.900;2022-08-19T03:36:18;16.75;;;12.15;;
20095;SDS011;10207;50.942;6.900;2022-08-19T03:38:45;14.48;;;12.57;;
20095;SDS011;10207;50.942;6.900;2022-08-19T03:41:13;19.83;;;13.57;;
20095;SDS011;10207;50.942;6.900;2022-08-19T03:43:41;17.42;;;13.93;;
20095;SDS011;10207;50.942;6.900;2022-08-19T03:46:08;14.70;;;12.75;;
20095;SDS011;10207;50.942;6.900;2022-08-19T03:48:35;16.00;;;12.93;;
20095;SDS011;10207;50.942;6.900;2022-08-19T03:51:01;18.10;;;12.82;;
20095;SDS011;10207;50.942;6.900;2022-08-19T03:53:27;13.57;;;10.60;;
20095;SDS011;10207;50.942;6.900;2022-08-19T03:55:54;22.38;;;12.30;;
20095;SDS011;10207;50.942;6.900;2022-08-19T03:58:20;18.60;;;12.93;;
20095;SDS011;10207;50.942;6.900;2022-08-19T04:00:46;22.55;;;16.45;;
20095;SDS011;10207;50.942;6.900;2022-08-19T04:03:12;23.13;;;17.13;;
20095;SDS011;10207;50.942;6.900;2022-08-19T04:05:38;20.20;;;16.67;;
20095;SDS011;10207;50.942;6.900;2022-08-19T04:08:04;28.33;;;18.30;;
20095;SDS011;10207;50.942;6.900;2022-08-19T04:10:35;24.65;;;19.75;;
20095;SDS011;10207;50.942;6.900;2022-08-19T04:13:01;29.10;;;21.63;;
20095;SDS011;10207;50.942;6.900;2022-08-19T04:15:27;27.27;;;19.83;;
20095;SDS011;10207;50.942;6.900;2022-08-19T04:17:55;24.95;;;18.80;;
20095;SDS011;10207;50.942;6.900;2022-08-19T04:20:21;27.00;;;18.95;;
20095;SDS011;10207;50.942;6.900;2022-08-19T04:22:47;26.08;;;21.30;;
20095;SDS011;10207;50.942;6.900;2022-08-19T04:25:12;27.92;;;22.27;;
20095;SDS011;10207;50.942;6.900;2022-08-19T04:27:38;26.17;;;22.50;;
20095;SDS011;10207;50.942;6.900;2022-08-19T04:30:04;28.73;;;22.60;;
20095;SDS011;10207;50.942;6.900;2022-08-19T04:32:30;31.40;;;22.38;;
20095;SDS011;10207;50.942;6.900;2022-08-19T04:34:57;25.80;;;20.70;;
20095;SDS011;10207;50.942;6.900;2022-08-19T04:37:25;29.77;;;20.55;;
20095;SDS011;10207;50.942;6.900;2022-08-19T04:39:51;27.60;;;21.23;;
20095;SDS011;10207;50.942;6.900;2022-08-19T04:42:36;26.65;;;21.92;;
20095;SDS011;10207;50.942;6.900;2022-08-19T04:45:09;27.38;;;21.85;;
20095;SDS011;10207;50.942;6.900;2022-08-19T04:47:39;29.10;;;21.98;;
20095;SDS011;10207;50.942;6.900;2022-08-19T04:50:05;30.52;;;23.52;;
20095;SDS011;10207;50.942;6.900;2022-08-19T04:52:31;32.63;;;22.50;;
20095;SDS011;10207;50.942;6.900;2022-08-19T04:54:58;28.95;;;20.17;;
20095;SDS011;10207;50.942;6.900;2022-08-19T04:57:23;23.65;;;18.55;;
20095;SDS011;10207;50.942;6.900;2022-08-19T04:59:53;23.88;;;18.05;;
20095;SDS011;10207;50.942;6.900;2022-08-19T05:02:19;23.58;;;16.70;;
20095;SDS011;10207;50.942;6.900;2022-08-19T05:04:44;22.67;;;16.02;;
20095;SDS011;10207;50.942;6.900;2022-08-19T05:07:10;24.42;;;17.40;;
20095;SDS011;10207;50.942;6.900;2022-08-19T05:09:36;25.15;;;18.23;;
20095;SDS011;10207;50.942;6.900;2022-08-19T05:12:02;23.20;;;17.73;;
20095;SDS011;10207;50.942;6.900;2022-08-19T05:14:27;23.73;;;20.17;;
20095;SDS011;10207;50.942;6.900;2022-08-19T05:16:54;25.20;;;19.30;;
20095;SDS011;10207;50.942;6.900;2022-08-19T05:19:20;31.50;;;22.48;;
20095;SDS011;10207;50.942;6.900;2022-08-19T05:22:05;33.40;;;22.17;;
20095;SDS011;10207;50.942;6.900;2022-08-19T05:24:50;40.22;;;25.48;;
20095;SDS011;10207;50.942;6.900;2022-08-19T05:27:15;37.85;;;26.48;;
20095;SDS011;10207;50.942;6.900;2022-08-19T05:29:41;34.50;;;26.90;;
20095;SDS011;10207;50.942;6.900;2022-08-19T05:32:07;38.38;;;28.67;;
20095;SDS011;10207;50.942;6.900;2022-08-19T05:34:34;36.33;;;29.13;;
20095;SDS011;10207;50.942;6.900;2022-08-19T05:37:02;36.00;;;28.17;;
20095;SDS011;10207;50.942;6.900;2022-08-19T05:39:29;36.60;;;29.35;;
20095;SDS011;10207;50.942;6.900;2022-08-19T05:41:56;40.63;;;30.02;;
20095;SDS011;10207;50.942;6.900;2022-08-19T05:44:24;41.35;;;31.20;;
20095;SDS011;10207;50.942;6.900;2022-08-19T05:46:50;40.42;;;30.80;;
20095;SDS011;10207;50.942;6.900;2022-08-19T05:49:18;38.42;;;29.45;;
20095;SDS011;10207;50.942;6.900;2022-08-19T05:51:45;36.92;;;28.23;;
20095;SDS011;10207;50.942;6.900;2022-08-19T05:54:11;37.65;;;30.27;;
20095;SDS011;10207;50.942;6.900;2022-08-19T05:56:39;35.10;;;29.40;;
20095;SDS011;10207;50.942;6.900;2022-08-19T05:59:06;35.80;;;29.00;;
20095;SDS011;10207;50.942;6.900;2022-08-19T06:01:37;44.17;;;29.35;;
20095;SDS011;10207;50.942;6.900;2022-08-19T06:04:03;41.42;;;28.77;;
20095;SDS011;10207;50.942;6.900;2022-08-19T06:06:29;35.08;;;28.48;;
20095;SDS011;10207;50.942;6.900;2022-08-19T06:08:55;39.00;;;28.90;;
20095;SDS011;10207;50.942;6.900;2022-08-19T06:11:22;32.60;;;26.35;;
20095;SDS011;10207;50.942;6.900;2022-08-19T06:13:49;35.10;;;28.00;;
20095;SDS011;10207;50.942;6.900;2022-08-19T06:16:16;33.97;;;26.65;;
20095;SDS011;10207;50.942;6.900;2022-08-19T06:18:51;35.38;;;26.15;;
20095;SDS011;10207;50.942;6.900;2022-08-19T06:21:18;37.33;;;27.08;;
20095;SDS011;10207;50.942;6.900;2022-08-19T06:23:44;37.55;;;26.40;;
20095;SDS011;10207;50.942;6.900;2022-08-19T06:26:14;39.08;;;26.50;;
20095;SDS011;10207;50.942;6.900;2022-08-19T06:28:40;36.45;;;27.35;;
20095;SDS011;10207;50.942;6.900;2022-08-19T06:31:20;34.40;;;25.42;;
20095;SDS011;10207;50.942;6.900;2022-08-19T06:33:47;30.50;;;24.20;;
20095;SDS011;10207;50.942;6.900;2022-08-19T06:36:26;34.45;;;26.23;;
20095;SDS011;10207;50.942;6.900;2022-08-19T06:39:03;33.92;;;25.38;;
20095;SDS011;10207;50.942;6.900;2022-08-19T06:41:29;32.60;;;24.27;;
20095;SDS011;10207;50.942;6.900;2022-08-19T06:43:56;38.80;;;25.13;;
20095;SDS011;10207;50.942;6.900;2022-08-19T06:46:22;30.38;;;23.92;;
20095;SDS011;10207;50.942;6.900;2022-08-19T06:48:48;27.40;;;24.13;;
20095;SDS011;10207;50.942;6.900;2022-08-19T06:51:14;32.88;;;24.90;;
20095;SDS011;10207;50.942;6.900;2022-08-19T06:53:41;31.13;;;25.10;;
20095;SDS011;10207;50.942;6.900;2022-08-19T06:56:13;33.63;;;25.73;;
20095;SDS011;10207;50.942;6.900;2022-08-19T06:58:39;31.80;;;24.40;;
20095;SDS011;10207;50.942;6.900;2022-08-19T07:01:05;31.25;;;24.52;;
20095;SDS011;10207;50.942;6.900;2022-08-19T07:03:32;36.30;;;23.55;;
20095;SDS011;10207;50.942;6.900;2022-08-19T07:06:06;33.97;;;23.08;;
20095;SDS011;10207;50.942;6.900;2022-08-19T07:08:35;29.15;;;23.05;;
20095;SDS011;10207;50.942;6.900;2022-08-19T07:11:09;28.52;;;22.55;;
20095;SDS011;10207;50.942;6.900;2022-08-19T07:13:35;30.33;;;23.50;;
20095;SDS011;10207;50.942;6.900;2022-08-19T07:16:03;30.98;;;22.48;;
20095;SDS011;10207;50.942;6.900;2022-08-19T07:18:29;29.52;;;22.25;;
20095;SDS011;10207;50.942;6.900;2022-08-19T07:21:04;32.00;;;23.60;;
20095;SDS011;10207;50.942;6.900;2022-08-19T07:23:31;29.65;;;22.40;;
20095;SDS011;10207;50.942;6.900;2022-08-19T07:25:56;26.13;;;20.65;;
20095;SDS011;10207;50.942;6.900;2022-08-19T07:28:22;31.05;;;23.83;;
20095;SDS011;10207;50.942;6.900;2022-08-19T07:30:48;33.75;;;25.02;;
20095;SDS011;10207;50.942;6.900;2022-08-19T07:33:15;32.53;;;24.05;;
20095;SDS011;10207;50.942;6.900;2022-08-19T07:35:42;35.92;;;24.65;;
20095;SDS011;10207;50.942;6.900;2022-08-19T07:38:07;31.73;;;23.70;;
20095;SDS011;10207;50.942;6.900;2022-08-19T07:40:33;33.63;;;25.85;;
20095;SDS011;10207;50.942;6.900;2022-08-19T07:42:59;34.92;;;27.35;;
20095;SDS011;10207;50.942;6.900;2022-08-19T07:45:25;32.40;;;25.63;;
20095;SDS011;10207;50.942;6.900;2022-08-19T07:47:50;33.55;;;25.90;;
20095;SDS011;10207;50.942;6.900;2022-08-19T07:50:18;49.75;;;27.58;;
20095;SDS011;10207;50.942;6.900;2022-08-19T07:52:44;37.90;;;25.98;;
20095;SDS011;10207;50.942;6.900;2022-08-19T07:55:10;39.95;;;26.88;;
20095;SDS011;10207;50.942;6.900;2022-08-19T07:57:36;37.45;;;25.67;;
20095;SDS011;10207;50.942;6.900;2022-08-19T08:00:04;39.00;;;27.88;;
20095;SDS011;10207;50.942;6.900;2022-08-19T08:02:37;37.05;;;28.13;;
20095;SDS011;10207;50.942;6.900;2022-08-19T08:05:04;40.22;;;28.10;;
20095;SDS011;10207;50.942;6.900;2022-08-19T08:07:49;40.08;;;28.00;;
20095;SDS011;10207;50.942;6.900;2022-08-19T08:10:33;42.97;;;29.27;;
20095;SDS011;10207;50.942;6.900;2022-08-19T08:12:59;41.92;;;29.75;;
20095;SDS011;10207;50.942;6.900;2022-08-19T08:15:25;38.13;;;28.23;;
20095;SDS011;10207;50.942;6.900;2022-08-19T08:17:51;40.25;;;29.13;;
20095;SDS011;10207;50.942;6.900;2022-08-19T08:20:17;43.22;;;29.55;;
20095;SDS011;10207;50.942;6.900;2022-08-19T08:22:44;40.60;;;27.83;;
20095;SDS011;10207;50.942;6.900;2022-08-19T08:25:28;35.17;;;26.17;;
20095;SDS011;10207;50.942;6.900;2022-08-19T08:27:55;36.58;;;27.58;;
20095;SDS011;10207;50.942;6.900;2022-08-19T08:30:22;40.25;;;28.63;;
20095;SDS011;10207;50.942;6.900;2022-08-19T08:32:49;41.92;;;27.90;;
20095;SDS011;10207;50.942;6.900;2022-08-19T08:35:15;37.97;;;26.98;;
20095;SDS011;10207;50.942;6.900;2022-08-19T08:37:43;45.55;;;29.90;;
20095;SDS011;10207;50.942;6.900;2022-08-19T08:40:11;40.53;;;29.60;;
20095;SDS011;10207;50.942;6.900;2022-08-19T08:42:39;37.28;;;28.70;;
20095;SDS011;10207;50.942;6.900;2022-08-19T08:45:13;41.50;;;29.75;;
20095;SDS011;10207;50.942;6.900;2022-08-19T08:47:41;40.10;;;29.83;;
20095;SDS011;10207;50.942;6.900;2022-08-19T08:50:10;40.45;;;29.80;;
20095;SDS011;10207;50.942;6.900;2022-08-19T08:52:39;40.80;;;29.90;;
20095;SDS011;10207;50.942;6.900;2022-08-19T08:55:10;44.85;;;31.40;;
20095;SDS011;10207;50.942;6.900;2022-08-19T08:57:50;41.33;;;31.98;;
20095;SDS011;10207;50.942;6.900;2022-08-19T09:02:46;41.53;;;30.88;;
20095;SDS011;10207;50.942;6.900;2022-08-19T09:05:12;35.60;;;26.17;;
20095;SDS011;10207;50.942;6.900;2022-08-19T09:07:46;34.70;;;25.55;;
20095;SDS011;10207;50.942;6.900;2022-08-19T09:10:57;33.53;;;24.52;;
20095;SDS011;10207;50.942;6.900;2022-08-19T09:15:39;33.03;;;24.75;;
20095;SDS011;10207;50.942;6.900;2022-08-19T09:18:06;28.40;;;23.25;;
20095;SDS011;10207;50.942;6.900;2022-08-19T09:20:33;34.00;;;24.75;;
20095;SDS011;10207;50.942;6.900;2022-08-19T09:22:59;30.33;;;23.38;;
20095;SDS011;10207;50.942;6.900;2022-08-19T09:25:25;32.08;;;24.45;;
20095;SDS011;10207;50.942;6.900;2022-08-19T09:27:52;34.75;;;25.38;;
20095;SDS011;10207;50.942;6.900;2022-08-19T09:30:20;33.38;;;23.75;;
20095;SDS011;10207;50.942;6.900;2022-08-19T09:32:47;33.03;;;22.23;;
20095;SDS011;10207;50.942;6.900;2022-08-19T09:35:13;30.25;;;22.80;;
20095;SDS011;10207;50.942;6.900;2022-08-19T09:37:39;33.97;;;21.42;;
20095;SDS011;10207;50.942;6.900;2022-08-19T09:40:05;28.42;;;20.42;;
20095;SDS011;10207;50.942;6.900;2022-08-19T09:42:32;25.42;;;20.10;;
20095;SDS011;10207;50.942;6.900;2022-08-19T09:44:59;25.70;;;20.95;;
20095;SDS011;10207;50.942;6.900;2022-08-19T09:47:25;23.27;;;18.60;;
20095;SDS011;10207;50.942;6.900;2022-08-19T09:49:51;24.25;;;18.42;;
20095;SDS011;10207;50.942;6.900;2022-08-19T09:52:17;19.77;;;16.13;;
20095;SDS011;10207;50.942;6.900;2022-08-19T09:54:43;23.95;;;17.30;;
20095;SDS011;10207;50.942;6.900;2022-08-19T09:57:09;28.30;;;17.92;;
20095;SDS011;10207;50.942;6.900;2022-08-19T09:59:34;21.42;;;16.70;;
20095;SDS011;10207;50.942;6.900;2022-08-19T10:02:00;22.92;;;16.33;;
20095;SDS011;10207;50.942;6.900;2022-08-19T10:04:26;24.02;;;14.00;;
20095;SDS011;10207;50.942;6.900;2022-08-19T10:07:12;19.75;;;14.90;;
20095;SDS011;10207;50.942;6.900;2022-08-19T10:09:38;14.98;;;12.00;;
20095;SDS011;10207;50.942;6.900;2022-08-19T10:12:06;20.75;;;12.90;;
20095;SDS011;10207;50.942;6.900;2022-08-19T10:14:32;13.68;;;10.18;;
20095;SDS011;10207;50.942;6.900;2022-08-19T10:16:58;13.82;;;12.07;;
20095;SDS011;10207;50.942;6.900;2022-08-19T10:19:26;15.57;;;12.45;;
20095;SDS011;10207;50.942;6.900;2022-08-19T10:21:52;18.75;;;12.63;;
20095;SDS011;10207;50.942;6.900;2022-08-19T10:24:18;17.08;;;13.88;;
20095;SDS011;10207;50.942;6.900;2022-08-19T10:26:45;16.98;;;12.88;;
20095;SDS011;10207;50.942;6.900;2022-08-19T10:29:13;14.73;;;11.00;;
20095;SDS011;10207;50.942;6.900;2022-08-19T10:31:41;13.38;;;9.88;;
20095;SDS011;10207;50.942;6.900;2022-08-19T10:34:07;13.13;;;11.73;;
20095;SDS011;10207;50.942;6.900;2022-08-19T10:36:34;14.43;;;11.63;;
20095;SDS011;10207;50.942;6.900;2022-08-19T10:39:02;16.15;;;12.15;;
20095;SDS011;10207;50.942;6.900;2022-08-19T10:41:30;16.98;;;12.07;;
20095;SDS011;10207;50.942;6.900;2022-08-19T10:43:59;18.50;;;14.80;;
20095;SDS011;10207;50.942;6.900;2022-08-19T10:46:25;18.63;;;14.55;;
20095;SDS011;10207;50.942;6.900;2022-08-19T10:48:52;16.95;;;13.60;;
20095;SDS011;10207;50.942;6.900;2022-08-19T10:51:18;18.17;;;14.25;;
20095;SDS011;10207;50.942;6.900;2022-08-19T10:54:03;18.80;;;14.57;;
20095;SDS011;10207;50.942;6.900;2022-08-19T10:56:29;19.17;;;16.08;;
20095;SDS011;10207;50.942;6.900;2022-08-19T10:59:14;17.52;;;13.45;;
20095;SDS011;10207;50.942;6.900;2022-08-19T11:01:40;17.02;;;13.00;;
20095;SDS011;10207;50.942;6.900;2022-08-19T11:04:07;18.38;;;14.95;;
20095;SDS011;10207;50.942;6.900;2022-08-19T11:06:35;18.48;;;14.90;;
20095;SDS011;10207;50.942;6.900;2022-08-19T11:09:02;18.50;;;13.43;;
20095;SDS011;10207;50.942;6.900;2022-08-19T11:11:28;19.48;;;12.30;;
20095;SDS011;10207;50.942;6.900;2022-08-19T11:13:54;11.00;;;9.45;;
20095;SDS011;10207;50.942;6.900;2022-08-19T11:16:20;11.77;;;9.45;;
20095;SDS011;10207;50.942;6.900;2022-08-19T11:18:48;11.38;;;9.70;;
20095;SDS011;10207;50.942;6.900;2022-08-19T11:21:15;14.73;;;11.00;;
20095;SDS011;10207;50.942;6.900;2022-08-19T11:23:45;12.43;;;10.20;;
20095;SDS011;10207;50.942;6.900;2022-08-19T11:26:12;13.32;;;9.38;;
20095;SDS011;10207;50.942;6.900;2022-08-19T11:28:38;15.07;;;8.43;;
20095;SDS011;10207;50.942;6.900;2022-08-19T11:31:04;10.98;;;9.23;;
20095;SDS011;10207;50.942;6.900;2022-08-19T11:33:30;12.98;;;8.50;;
20095;SDS011;10207;50.942;6.900;2022-08-19T11:35:58;12.30;;;7.82;;
20095;SDS011;10207;50.942;6.900;2022-08-19T11:38:26;11.90;;;9.57;;
20095;SDS011;10207;50.942;6.900;2022-08-19T11:41:03;9.35;;;7.47;;
20095;SDS011;10207;50.942;6.900;2022-08-19T11:43:29;12.55;;;8.48;;
20095;SDS011;10207;50.942;6.900;2022-08-19T11:45:56;10.80;;;9.02;;
20095;SDS011;10207;50.942;6.900;2022-08-19T11:48:22;14.88;;;9.55;;
20095;SDS011;10207;50.942;6.900;2022-08-19T11:50:49;10.82;;;9.20;;
20095;SDS011;10207;50.942;6.900;2022-08-19T11:53:15;10.27;;;9.10;;
20095;SDS011;10207;50.942;6.900;2022-08-19T11:55:41;9.93;;;8.60;;
20095;SDS011;10207;50.942;6.900;2022-08-19T11:58:08;10.27;;;7.82;;
20095;SDS011;10207;50.942;6.900;2022-08-19T12:00:34;9.07;;;7.60;;
20095;SDS011;10207;50.942;6.900;2022-08-19T12:03:02;8.50;;;7.60;;
20095;SDS011;10207;50.942;6.900;2022-08-19T12:05:27;9.95;;;8.20;;
20095;SDS011;10207;50.942;6.900;2022-08-19T12:07:53;10.30;;;6.47;;
20095;SDS011;10207;50.942;6.900;2022-08-19T12:10:20;10.73;;;7.00;;
20095;SDS011;10207;50.942;6.900;2022-08-19T12:12:45;9.07;;;7.75;;
20095;SDS011;10207;50.942;6.900;2022-08-19T12:15:12;7.82;;;6.90;;
20095;SDS011;10207;50.942;6.900;2022-08-19T12:17:38;10.50;;;8.45;;
20095;SDS011;10207;50.942;6.900;2022-08-19T12:20:04;10.40;;;7.70;;
20095;SDS011;10207;50.942;6.900;2022-08-19T12:22:30;11.15;;;6.63;;
20095;SDS011;10207;50.942;6.900;2022-08-19T12:24:56;11.15;;;6.60;;
20095;SDS011;10207;50.942;6.900;2022-08-19T12:27:22;9.32;;;7.55;;
20095;SDS011;10207;50.942;6.900;2022-08-19T12:29:48;8.13;;;6.72;;
20095;SDS011;10207;50.942;6.900;2022-08-19T12:32:14;7.63;;;5.53;;
20095;SDS011;10207;50.942;6.900;2022-08-19T12:34:40;10.73;;;7.47;;
20095;SDS011;10207;50.942;6.900;2022-08-19T12:37:06;15.13;;;8.13;;
20095;SDS011;10207;50.942;6.900;2022-08-19T12:39:40;10.63;;;8.25;;
20095;SDS011;10207;50.942;6.900;2022-08-19T12:42:08;8.88;;;7.50;;
20095;SDS011;10207;50.942;6.900;2022-08-19T12:44:34;13.25;;;7.32;;
20095;SDS011;10207;50.942;6.900;2022-08-19T12:47:00;9.38;;;7.00;;
20095;SDS011;10207;50.942;6.900;2022-08-19T12:49:28;10.02;;;7.57;;
20095;SDS011;10207;50.942;6.900;2022-08-19T12:51:54;16.67;;;7.30;;
20095;SDS011;10207;50.942;6.900;2022-08-19T12:54:20;13.02;;;7.45;;
20095;SDS011;10207;50.942;6.900;2022-08-19T12:56:45;7.43;;;6.38;;
20095;SDS011;10207;50.942;6.900;2022-08-19T12:59:11;10.63;;;7.22;;
20095;SDS011;10207;50.942;6.900;2022-08-19T13:01:37;10.93;;;6.90;;
20095;SDS011;10207;50.942;6.900;2022-08-19T13:04:03;10.20;;;7.22;;
20095;SDS011;10207;50.942;6.900;2022-08-19T13:06:29;8.98;;;7.18;;
20095;SDS011;10207;50.942;6.900;2022-08-19T13:08:55;11.68;;;7.15;;
20095;SDS011;10207;50.942;6.900;2022-08-19T13:11:22;8.27;;;6.93;;
20095;SDS011;10207;50.942;6.900;2022-08-19T13:13:50;8.30;;;5.80;;
20095;SDS011;10207;50.942;6.900;2022-08-19T13:16:17;8.90;;;5.38;;
20095;SDS011;10207;50.942;6.900;2022-08-19T13:18:44;7.72;;;5.72;;
20095;SDS011;10207;50.942;6.900;2022-08-19T13:21:10;8.93;;;5.95;;
20095;SDS011;10207;50.942;6.900;2022-08-19T13:23:39;8.20;;;5.45;;
20095;SDS011;10207;50.942;6.900;2022-08-19T13:26:05;14.07;;;5.97;;
20095;SDS011;10207;50.942;6.900;2022-08-19T13:28:32;7.90;;;6.50;;
20095;SDS011;10207;50.942;6.900;2022-08-19T13:31:17;12.32;;;6.03;;
20095;SDS011;10207;50.942;6.900;2022-08-19T13:34:02;10.10;;;5.53;;
20095;SDS011;10207;50.942;6.900;2022-08-19T13:36:28;9.10;;;5.15;;
20095;SDS011;10207;50.942;6.900;2022-08-19T13:38:53;8.55;;;4.75;;
20095;SDS011;10207;50.942;6.900;2022-08-19T13:41:19;8.68;;;6.18;;
20095;SDS011;10207;50.942;6.900;2022-08-19T13:43:45;8.55;;;6.28;;
20095;SDS011;10207;50.942;6.900;2022-08-19T13:46:11;8.10;;;5.57;;
20095;SDS011;10207;50.942;6.900;2022-08-19T13:48:40;8.07;;;4.65;;
20095;SDS011;10207;50.942;6.900;2022-08-19T13:51:06;6.38;;;4.57;;
20095;SDS011;10207;50.942;6.900;2022-08-19T13:53:38;9.90;;;6.40;;
20095;SDS011;10207;50.942;6.900;2022-08-19T13:56:05;7.53;;;6.28;;
20095;SDS011;10207;50.942;6.900;2022-08-19T13:58:31;6.63;;;4.97;;
20095;SDS011;10207;50.942;6.900;2022-08-19T14:00:57;8.05;;;4.88;;
20095;SDS011;10207;50.942;6.900;2022-08-19T14:03:25;8.13;;;4.32;;
20095;SDS011;10207;50.942;6.900;2022-08-19T14:05:50;8.70;;;4.20;;
20095;SDS011;10207;50.942;6.900;2022-08-19T14:08:16;7.70;;;4.72;;
20095;SDS011;10207;50.942;6.900;2022-08-19T14:10:42;15.40;;;5.70;;
20095;SDS011;10207;50.942;6.900;2022-08-19T14:13:10;10.05;;;5.43;;
20095;SDS011;10207;50.942;6.900;2022-08-19T14:15:38;8.75;;;4.93;;
20095;SDS011;10207;50.942;6.900;2022-08-19T14:18:03;6.72;;;5.45;;
20095;SDS011;10207;50.942;6.900;2022-08-19T14:20:29;10.48;;;5.65;;
20095;SDS011;10207;50.942;6.900;2022-08-19T14:22:55;11.55;;;6.05;;
20095;SDS011;10207;50.942;6.900;2022-08-19T14:25:25;8.15;;;5.70;;
20095;SDS011;10207;50.942;6.900;2022-08-19T14:27:51;11.32;;;6.13;;
20095;SDS011;10207;50.942;6.900;2022-08-19T14:30:18;7.72;;;4.95;;
20095;SDS011;10207;50.942;6.900;2022-08-19T14:32:44;6.40;;;5.25;;
20095;SDS011;10207;50.942;6.900;2022-08-19T14:35:10;6.72;;;4.60;;